sensor_id;sensor_type;location;lat;lon;timestamp;P1;durP1;ratioP1;P2;durP2;ratioP2
36221;SDS011;22266;52.340;4.962;2022-12-07T00:01:19;1.25;;;1.25;;
36221;SDS011;22266;52.340;4.962;2022-12-07T00:03:48;2.00;;;2.00;;
36221;SDS011;22266;52.340;4.962;2022-12-07T00:06:16;2.00;;;1.00;;
36221;SDS011;22266;52.340;4.962;2022-12-07T00:08:43;5.50;;;5.00;;
36221;SDS011;22266;52.340;4.962;2022-12-07T00:11:12;1.00;;;1.00;;
36221;SDS011;22266;52.340;4.962;2022-12-07T00:13:41;2.00;;;2.00;;
36221;SDS011;22266;52.340;4.962;2022-12-07T00:16:10;1.00;;;1.00;;
36221;SDS011;22266;52.340;4.962;2022-12-07T00:18:38;0.25;;;0.00;;
36221;SDS011;22266;52.340;4.962;2022-12-07T00:21:26;0.75;;;0.75;;
36221;SDS011;22266;52.340;4.962;2022-12-07T00:23:52;0.00;;;0.00;;
36221;SDS011;22266;52.340;4.962;2022-12-07T00:26:21;0.00;;;0.00;;
36221;SDS011;22266;52.340;4.962;2022-12-07T00:28:59;1.75;;;1.00;;
36221;SDS011;22266;52.340;4.962;2022-12-07T00:31:31;0.00;;;0.00;;
36221;SDS011;22266;52.340;4.962;2022-12-07T00:34:01;0.50;;;0.50;;
36221;SDS011;22266;52.340;4.962;2022-12-07T00:36:27;0.00;;;0.00;;
36221;SDS011;22266;52.340;4.962;2022-12-07T00:38:54;0.00;;;0.00;;
36221;SDS011;22266;52.340;4.962;2022-12-07T00:41:24;1.00;;;0.00;;
36221;SDS011;22266;52.340;4.962;2022-12-07T00:43:52;0.25;;;0.25;;
36221;SDS011;22266;52.340;4.962;2022-12-07T00:46:19;3.00;;;0.00;;
36221;SDS011;22266;52.340;4.962;2022-12-07T00:48:47;0.00;;;0.00;;
36221;SDS011;22266;52.340;4.962;2022-12-07T00:51:15;2.00;;;0.75;;
36221;SDS011;22266;52.340;4.962;2022-12-07T00:53:43;0.75;;;0.00;;
36221;SDS011;22266;52.340;4.962;2022-12-07T00:56:17;0.00;;;0.00;;
36221;SDS011;22266;52.340;4.962;2022-12-07T00:58:55;0.00;;;0.00;;
36221;SDS011;22266;52.340;4.962;2022-12-07T01:01:28;1.00;;;0.75;;
36221;SDS011;22266;52.340;4.962;2022-12-07T01:03:57;0.00;;;0.00;;
36221;SDS011;22266;52.340;4.962;2022-12-07T01:06:24;1.00;;;0.00;;
36221;SDS011;22266;52.340;4.962;2022-12-07T01:08:51;2.00;;;0.00;;
36221;SDS011;22266;52.340;4.962;2022-12-07T01:11:20;0.00;;;0.00;;
36221;SDS011;22266;52.340;4.962;2022-12-07T01:13:51;0.00;;;0.00;;
36221;SDS011;22266;52.340;4.962;2022-12-07T01:16:20;0.00;;;0.00;;
36221;SDS011;22266;52.340;4.962;2022-12-07T01:18:49;0.00;;;0.00;;
36221;SDS011;22266;52.340;4.962;2022-12-07T01:21:19;1.00;;;1.00;;
36221;SDS011;22266;52.340;4.962;2022-12-07T01:23:47;1.00;;;1.00;;
36221;SDS011;22266;52.340;4.962;2022-12-07T01:26:15;1.50;;;0.00;;
36221;SDS011;22266;52.340;4.962;2022-12-07T01:28:43;1.00;;;1.00;;
36221;SDS011;22266;52.340;4.962;2022-12-07T01:31:12;1.25;;;0.00;;
36221;SDS011;22266;52.340;4.962;2022-12-07T01:33:45;0.00;;;0.00;;
36221;SDS011;22266;52.340;4.962;2022-12-07T01:36:14;0.25;;;0.00;;
36221;SDS011;22266;52.340;4.962;2022-12-07T01:38:46;0.00;;;0.00;;
36221;SDS011;22266;52.340;4.962;2022-12-07T01:41:15;1.75;;;0.75;;
36221;SDS011;22266;52.340;4.962;2022-12-07T01:46:46;0.25;;;0.25;;
36221;SDS011;22266;52.340;4.962;2022-12-07T01:49:25;1.25;;;0.75;;
36221;SDS011;22266;52.340;4.962;2022-12-07T01:51:55;0.00;;;0.00;;
36221;SDS011;22266;52.340;4.962;2022-12-07T01:54:27;0.00;;;0.00;;
36221;SDS011;22266;52.340;4.962;2022-12-07T01:56:54;2.00;;;2.00;;
36221;SDS011;22266;52.340;4.962;2022-12-07T01:59:23;0.00;;;0.00;;
36221;SDS011;22266;52.340;4.962;2022-12-07T02:01:53;0.75;;;0.75;;
36221;SDS011;22266;52.340;4.962;2022-12-07T02:04:21;0.00;;;0.00;;
36221;SDS011;22266;52.340;4.962;2022-12-07T02:06:48;0.00;;;0.00;;
36221;SDS011;22266;52.340;4.962;2022-12-07T02:09:16;0.00;;;0.00;;
36221;SDS011;22266;52.340;4.962;2022-12-07T02:11:43;1.00;;;1.00;;
36221;SDS011;22266;52.340;4.962;2022-12-07T02:14:09;3.50;;;0.25;;
36221;SDS011;22266;52.340;4.962;2022-12-07T02:25:44;1.00;;;0.00;;
36221;SDS011;22266;52.340;4.962;2022-12-07T02:28:06;1.00;;;1.00;;
36221;SDS011;22266;52.340;4.962;2022-12-07T02:30:37;0.00;;;0.00;;
36221;SDS011;22266;52.340;4.962;2022-12-07T02:33:11;1.00;;;0.00;;
36221;SDS011;22266;52.340;4.962;2022-12-07T02:36:11;2.00;;;0.00;;
36221;SDS011;22266;52.340;4.962;2022-12-07T02:38:45;0.00;;;0.00;;
36221;SDS011;22266;52.340;4.962;2022-12-07T02:42:05;1.25;;;0.75;;
36221;SDS011;22266;52.340;4.962;2022-12-07T02:44:13;0.00;;;0.00;;
36221;SDS011;22266;52.340;4.962;2022-12-07T02:46:46;0.00;;;0.00;;
36221;SDS011;22266;52.340;4.962;2022-12-07T02:49:18;0.00;;;0.00;;
36221;SDS011;22266;52.340;4.962;2022-12-07T02:51:49;0.00;;;0.00;;
36221;SDS011;22266;52.340;4.962;2022-12-07T02:54:18;0.00;;;0.00;;
36221;SDS011;22266;52.340;4.962;2022-12-07T02:56:49;0.00;;;0.00;;
36221;SDS011;22266;52.340;4.962;2022-12-07T03:08:01;1.00;;;0.00;;
36221;SDS011;22266;52.340;4.962;2022-12-07T03:16:27;0.00;;;0.00;;
36221;SDS011;22266;52.340;4.962;2022-12-07T03:19:09;0.50;;;0.00;;
36221;SDS011;22266;52.340;4.962;2022-12-07T03:21:40;1.50;;;0.00;;
36221;SDS011;22266;52.340;4.962;2022-12-07T03:24:14;0.25;;;0.00;;
36221;SDS011;22266;52.340;4.962;2022-12-07T03:26:47;0.00;;;0.00;;
36221;SDS011;22266;52.340;4.962;2022-12-07T03:29:19;0.00;;;0.00;;
36221;SDS011;22266;52.340;4.962;2022-12-07T03:31:52;0.50;;;0.00;;
36221;SDS011;22266;52.340;4.962;2022-12-07T03:34:30;0.00;;;0.00;;
36221;SDS011;22266;52.340;4.962;2022-12-07T03:37:07;0.25;;;0.00;;
36221;SDS011;22266;52.340;4.962;2022-12-07T03:39:39;0.00;;;0.00;;
36221;SDS011;22266;52.340;4.962;2022-12-07T03:42:14;0.00;;;0.00;;
36221;SDS011;22266;52.340;4.962;2022-12-07T03:44:41;0.00;;;0.00;;
36221;SDS011;22266;52.340;4.962;2022-12-07T03:49:54;0.25;;;0.25;;
36221;SDS011;22266;52.340;4.962;2022-12-07T03:57:51;0.00;;;0.00;;
36221;SDS011;22266;52.340;4.962;2022-12-07T04:00:22;0.00;;;0.00;;
36221;SDS011;22266;52.340;4.962;2022-12-07T04:02:50;0.00;;;0.00;;
36221;SDS011;22266;52.340;4.962;2022-12-07T04:05:18;0.00;;;0.00;;
36221;SDS011;22266;52.340;4.962;2022-12-07T04:07:45;0.00;;;0.00;;
36221;SDS011;22266;52.340;4.962;2022-12-07T04:10:12;1.00;;;0.00;;
36221;SDS011;22266;52.340;4.962;2022-12-07T04:12:38;1.00;;;1.00;;
36221;SDS011;22266;52.340;4.962;2022-12-07T04:15:05;0.00;;;0.00;;
36221;SDS011;22266;52.340;4.962;2022-12-07T04:17:32;0.75;;;0.75;;
36221;SDS011;22266;52.340;4.962;2022-12-07T04:19:59;0.00;;;0.00;;
36221;SDS011;22266;52.340;4.962;2022-12-07T04:22:26;0.25;;;0.00;;
36221;SDS011;22266;52.340;4.962;2022-12-07T04:24:52;0.00;;;0.00;;
36221;SDS011;22266;52.340;4.962;2022-12-07T04:27:19;1.00;;;1.00;;
36221;SDS011;22266;52.340;4.962;2022-12-07T04:29:45;0.75;;;0.00;;
36221;SDS011;22266;52.340;4.962;2022-12-07T04:32:12;0.00;;;0.00;;
36221;SDS011;22266;52.340;4.962;2022-12-07T04:34:38;0.00;;;0.00;;
36221;SDS011;22266;52.340;4.962;2022-12-07T04:37:05;0.25;;;0.00;;
36221;SDS011;22266;52.340;4.962;2022-12-07T04:39:32;0.00;;;0.00;;
36221;SDS011;22266;52.340;4.962;2022-12-07T04:41:59;0.50;;;0.50;;
36221;SDS011;22266;52.340;4.962;2022-12-07T04:44:27;1.50;;;1.00;;
36221;SDS011;22266;52.340;4.962;2022-12-07T04:46:54;0.00;;;0.00;;
36221;SDS011;22266;52.340;4.962;2022-12-07T04:49:21;0.00;;;0.00;;
36221;SDS011;22266;52.340;4.962;2022-12-07T04:51:48;1.00;;;0.00;;
36221;SDS011;22266;52.340;4.962;2022-12-07T04:54:15;0.00;;;0.00;;
36221;SDS011;22266;52.340;4.962;2022-12-07T04:56:45;0.00;;;0.00;;
36221;SDS011;22266;52.340;4.962;2022-12-07T04:59:12;0.50;;;0.50;;
36221;SDS011;22266;52.340;4.962;2022-12-07T05:01:40;0.75;;;0.00;;
36221;SDS011;22266;52.340;4.962;2022-12-07T05:04:07;0.00;;;0.00;;
36221;SDS011;22266;52.340;4.962;2022-12-07T05:06:34;0.00;;;0.00;;
36221;SDS011;22266;52.340;4.962;2022-12-07T05:09:01;1.00;;;1.00;;
36221;SDS011;22266;52.340;4.962;2022-12-07T05:11:28;0.50;;;0.00;;
36221;SDS011;22266;52.340;4.962;2022-12-07T05:14:17;4.00;;;0.00;;
36221;SDS011;22266;52.340;4.962;2022-12-07T05:16:46;2.50;;;0.75;;
36221;SDS011;22266;52.340;4.962;2022-12-07T05:19:15;0.00;;;0.00;;
36221;SDS011;22266;52.340;4.962;2022-12-07T05:21:42;0.00;;;0.00;;
36221;SDS011;22266;52.340;4.962;2022-12-07T05:24:09;2.25;;;2.25;;
36221;SDS011;22266;52.340;4.962;2022-12-07T05:26:37;6.00;;;3.50;;
36221;SDS011;22266;52.340;4.962;2022-12-07T05:29:04;12.25;;;8.25;;
36221;SDS011;22266;52.340;4.962;2022-12-07T05:31:30;10.00;;;8.75;;
36221;SDS011;22266;52.340;4.962;2022-12-07T05:33:57;8.50;;;8.00;;
36221;SDS011;22266;52.340;4.962;2022-12-07T05:36:24;12.25;;;10.50;;
36221;SDS011;22266;52.340;4.962;2022-12-07T05:38:51;8.00;;;8.00;;
36221;SDS011;22266;52.340;4.962;2022-12-07T05:41:18;4.00;;;4.00;;
36221;SDS011;22266;52.340;4.962;2022-12-07T05:44:04;1.50;;;1.50;;
36221;SDS011;22266;52.340;4.962;2022-12-07T05:46:30;0.00;;;0.00;;
36221;SDS011;22266;52.340;4.962;2022-12-07T05:48:57;0.50;;;0.50;;
36221;SDS011;22266;52.340;4.962;2022-12-07T05:51:23;0.00;;;0.00;;
36221;SDS011;22266;52.340;4.962;2022-12-07T05:53:50;0.00;;;0.00;;
36221;SDS011;22266;52.340;4.962;2022-12-07T05:56:16;0.25;;;0.25;;
36221;SDS011;22266;52.340;4.962;2022-12-07T05:58:43;0.00;;;0.00;;
36221;SDS011;22266;52.340;4.962;2022-12-07T06:01:28;0.00;;;0.00;;
36221;SDS011;22266;52.340;4.962;2022-12-07T06:03:54;0.00;;;0.00;;
36221;SDS011;22266;52.340;4.962;2022-12-07T06:06:21;0.00;;;0.00;;
36221;SDS011;22266;52.340;4.962;2022-12-07T06:08:47;0.75;;;0.75;;
36221;SDS011;22266;52.340;4.962;2022-12-07T06:11:14;3.75;;;2.00;;
36221;SDS011;22266;52.340;4.962;2022-12-07T06:13:59;6.00;;;5.75;;
36221;SDS011;22266;52.340;4.962;2022-12-07T06:16:25;9.00;;;9.00;;
36221;SDS011;22266;52.340;4.962;2022-12-07T06:18:52;13.50;;;11.25;;
36221;SDS011;22266;52.340;4.962;2022-12-07T06:21:18;8.25;;;7.00;;
36221;SDS011;22266;52.340;4.962;2022-12-07T06:23:45;5.00;;;5.00;;
36221;SDS011;22266;52.340;4.962;2022-12-07T06:26:11;4.00;;;4.00;;
36221;SDS011;22266;52.340;4.962;2022-12-07T06:28:38;1.75;;;1.75;;
36221;SDS011;22266;52.340;4.962;2022-12-07T06:31:04;1.00;;;1.00;;
36221;SDS011;22266;52.340;4.962;2022-12-07T06:33:38;0.00;;;0.00;;
36221;SDS011;22266;52.340;4.962;2022-12-07T06:36:05;0.50;;;0.00;;
36221;SDS011;22266;52.340;4.962;2022-12-07T06:38:31;0.00;;;0.00;;
36221;SDS011;22266;52.340;4.962;2022-12-07T06:40:58;0.00;;;0.00;;
36221;SDS011;22266;52.340;4.962;2022-12-07T06:43:24;0.75;;;0.75;;
36221;SDS011;22266;52.340;4.962;2022-12-07T06:45:51;0.00;;;0.00;;
36221;SDS011;22266;52.340;4.962;2022-12-07T06:48:17;0.00;;;0.00;;
36221;SDS011;22266;52.340;4.962;2022-12-07T06:50:44;0.00;;;0.00;;
36221;SDS011;22266;52.340;4.962;2022-12-07T06:53:19;0.00;;;0.00;;
36221;SDS011;22266;52.340;4.962;2022-12-07T06:55:45;0.00;;;0.00;;
36221;SDS011;22266;52.340;4.962;2022-12-07T06:58:12;0.00;;;0.00;;
36221;SDS011;22266;52.340;4.962;2022-12-07T07:00:38;0.00;;;0.00;;
36221;SDS011;22266;52.340;4.962;2022-12-07T07:03:05;0.00;;;0.00;;
36221;SDS011;22266;52.340;4.962;2022-12-07T07:05:31;0.00;;;0.00;;
36221;SDS011;22266;52.340;4.962;2022-12-07T07:07:57;1.00;;;1.00;;
36221;SDS011;22266;52.340;4.962;2022-12-07T07:10:44;2.00;;;0.00;;
36221;SDS011;22266;52.340;4.962;2022-12-07T07:13:10;0.00;;;0.00;;
36221;SDS011;22266;52.340;4.962;2022-12-07T07:15:37;1.50;;;1.00;;
36221;SDS011;22266;52.340;4.962;2022-12-07T07:18:04;1.50;;;1.50;;
36221;SDS011;22266;52.340;4.962;2022-12-07T07:20:33;4.75;;;4.00;;
36221;SDS011;22266;52.340;4.962;2022-12-07T07:22:59;4.00;;;4.00;;
36221;SDS011;22266;52.340;4.962;2022-12-07T07:25:26;6.00;;;4.75;;
36221;SDS011;22266;52.340;4.962;2022-12-07T07:27:52;2.00;;;2.00;;
36221;SDS011;22266;52.340;4.962;2022-12-07T07:30:19;4.00;;;3.00;;
36221;SDS011;22266;52.340;4.962;2022-12-07T07:32:45;2.00;;;2.00;;
36221;SDS011;22266;52.340;4.962;2022-12-07T07:35:12;0.00;;;0.00;;
36221;SDS011;22266;52.340;4.962;2022-12-07T07:37:40;1.25;;;1.00;;
36221;SDS011;22266;52.340;4.962;2022-12-07T07:40:07;0.50;;;0.50;;
36221;SDS011;22266;52.340;4.962;2022-12-07T07:42:35;0.25;;;0.25;;
36221;SDS011;22266;52.340;4.962;2022-12-07T07:45:01;1.75;;;0.75;;
36221;SDS011;22266;52.340;4.962;2022-12-07T07:47:28;0.75;;;0.75;;
36221;SDS011;22266;52.340;4.962;2022-12-07T07:49:55;1.00;;;1.00;;
36221;SDS011;22266;52.340;4.962;2022-12-07T07:52:21;0.00;;;0.00;;
36221;SDS011;22266;52.340;4.962;2022-12-07T07:54:47;0.25;;;0.00;;
36221;SDS011;22266;52.340;4.962;2022-12-07T07:57:14;0.00;;;0.00;;
36221;SDS011;22266;52.340;4.962;2022-12-07T07:59:42;0.75;;;0.00;;
36221;SDS011;22266;52.340;4.962;2022-12-07T08:02:11;0.00;;;0.00;;
36221;SDS011;22266;52.340;4.962;2022-12-07T08:04:40;0.00;;;0.00;;
36221;SDS011;22266;52.340;4.962;2022-12-07T08:07:07;0.00;;;0.00;;
36221;SDS011;22266;52.340;4.962;2022-12-07T08:09:34;0.00;;;0.00;;
36221;SDS011;22266;52.340;4.962;2022-12-07T08:12:00;0.00;;;0.00;;
36221;SDS011;22266;52.340;4.962;2022-12-07T08:14:27;0.75;;;0.25;;
36221;SDS011;22266;52.340;4.962;2022-12-07T08:16:54;1.00;;;0.50;;
36221;SDS011;22266;52.340;4.962;2022-12-07T08:19:21;0.50;;;0.50;;
36221;SDS011;22266;52.340;4.962;2022-12-07T08:21:47;1.75;;;0.25;;
36221;SDS011;22266;52.340;4.962;2022-12-07T08:24:14;0.00;;;0.00;;
36221;SDS011;22266;52.340;4.962;2022-12-07T08:26:41;0.00;;;0.00;;
36221;SDS011;22266;52.340;4.962;2022-12-07T08:29:08;0.25;;;0.00;;
36221;SDS011;22266;52.340;4.962;2022-12-07T08:31:34;0.00;;;0.00;;
36221;SDS011;22266;52.340;4.962;2022-12-07T08:34:01;0.00;;;0.00;;
36221;SDS011;22266;52.340;4.962;2022-12-07T08:36:28;0.00;;;0.00;;
36221;SDS011;22266;52.340;4.962;2022-12-07T08:38:54;0.00;;;0.00;;
36221;SDS011;22266;52.340;4.962;2022-12-07T08:41:41;0.00;;;0.00;;
36221;SDS011;22266;52.340;4.962;2022-12-07T08:44:07;1.00;;;0.00;;
36221;SDS011;22266;52.340;4.962;2022-12-07T08:46:35;0.00;;;0.00;;
36221;SDS011;22266;52.340;4.962;2022-12-07T08:49:09;0.00;;;0.00;;
36221;SDS011;22266;52.340;4.962;2022-12-07T08:51:40;0.00;;;0.00;;
36221;SDS011;22266;52.340;4.962;2022-12-07T08:54:11;0.50;;;0.00;;
36221;SDS011;22266;52.340;4.962;2022-12-07T08:56:42;0.00;;;0.00;;
36221;SDS011;22266;52.340;4.962;2022-12-07T08:59:12;0.00;;;0.00;;
36221;SDS011;22266;52.340;4.962;2022-12-07T09:01:42;1.00;;;0.00;;
36221;SDS011;22266;52.340;4.962;2022-12-07T09:04:09;0.50;;;0.00;;
36221;SDS011;22266;52.340;4.962;2022-12-07T09:06:35;0.00;;;0.00;;
36221;SDS011;22266;52.340;4.962;2022-12-07T09:09:02;1.25;;;0.25;;
36221;SDS011;22266;52.340;4.962;2022-12-07T09:11:30;0.00;;;0.00;;
36221;SDS011;22266;52.340;4.962;2022-12-07T09:13:56;1.25;;;0.25;;
36221;SDS011;22266;52.340;4.962;2022-12-07T09:16:23;0.00;;;0.00;;
36221;SDS011;22266;52.340;4.962;2022-12-07T09:18:49;4.00;;;0.00;;
36221;SDS011;22266;52.340;4.962;2022-12-07T09:21:16;0.00;;;0.00;;
36221;SDS011;22266;52.340;4.962;2022-12-07T09:23:42;0.00;;;0.00;;
36221;SDS011;22266;52.340;4.962;2022-12-07T09:26:09;0.00;;;0.00;;
36221;SDS011;22266;52.340;4.962;2022-12-07T09:28:36;0.00;;;0.00;;
36221;SDS011;22266;52.340;4.962;2022-12-07T09:31:03;0.00;;;0.00;;
36221;SDS011;22266;52.340;4.962;2022-12-07T09:34:08;0.00;;;0.00;;
36221;SDS011;22266;52.340;4.962;2022-12-07T09:36:35;0.00;;;0.00;;
36221;SDS011;22266;52.340;4.962;2022-12-07T09:39:02;0.00;;;0.00;;
36221;SDS011;22266;52.340;4.962;2022-12-07T09:41:30;0.75;;;0.25;;
36221;SDS011;22266;52.340;4.962;2022-12-07T09:44:02;0.50;;;0.00;;
36221;SDS011;22266;52.340;4.962;2022-12-07T09:46:33;0.00;;;0.00;;
36221;SDS011;22266;52.340;4.962;2022-12-07T09:49:02;0.00;;;0.00;;
36221;SDS011;22266;52.340;4.962;2022-12-07T09:51:30;0.00;;;0.00;;
36221;SDS011;22266;52.340;4.962;2022-12-07T09:53:57;0.00;;;0.00;;
36221;SDS011;22266;52.340;4.962;2022-12-07T09:56:25;0.00;;;0.00;;
36221;SDS011;22266;52.340;4.962;2022-12-07T09:58:54;0.00;;;0.00;;
36221;SDS011;22266;52.340;4.962;2022-12-07T10:01:30;0.50;;;0.50;;
36221;SDS011;22266;52.340;4.962;2022-12-07T10:06:35;1.00;;;1.00;;
36221;SDS011;22266;52.340;4.962;2022-12-07T10:09:02;2.00;;;0.00;;
36221;SDS011;22266;52.340;4.962;2022-12-07T10:11:34;0.25;;;0.25;;
36221;SDS011;22266;52.340;4.962;2022-12-07T10:14:10;1.00;;;1.00;;
36221;SDS011;22266;52.340;4.962;2022-12-07T10:16:39;1.50;;;0.25;;
36221;SDS011;22266;52.340;4.962;2022-12-07T10:19:17;0.50;;;0.50;;
36221;SDS011;22266;52.340;4.962;2022-12-07T10:22:02;1.00;;;1.00;;
36221;SDS011;22266;52.340;4.962;2022-12-07T10:24:35;1.00;;;1.00;;
36221;SDS011;22266;52.340;4.962;2022-12-07T10:27:09;0.50;;;0.50;;
36221;SDS011;22266;52.340;4.962;2022-12-07T10:29:50;0.00;;;0.00;;
36221;SDS011;22266;52.340;4.962;2022-12-07T10:34:45;0.00;;;0.00;;
36221;SDS011;22266;52.340;4.962;2022-12-07T10:37:27;0.50;;;0.50;;
36221;SDS011;22266;52.340;4.962;2022-12-07T10:39:55;0.75;;;0.00;;
36221;SDS011;22266;52.340;4.962;2022-12-07T10:42:24;2.00;;;2.00;;
36221;SDS011;22266;52.340;4.962;2022-12-07T10:45:14;0.50;;;0.50;;
36221;SDS011;22266;52.340;4.962;2022-12-07T10:47:50;0.00;;;0.00;;
36221;SDS011;22266;52.340;4.962;2022-12-07T11:01:57;0.00;;;0.00;;
36221;SDS011;22266;52.340;4.962;2022-12-07T11:04:53;0.00;;;0.00;;
36221;SDS011;22266;52.340;4.962;2022-12-07T11:07:38;1.25;;;0.25;;
36221;SDS011;22266;52.340;4.962;2022-12-07T11:10:23;1.00;;;0.25;;
36221;SDS011;22266;52.340;4.962;2022-12-07T11:13:05;0.00;;;0.00;;
36221;SDS011;22266;52.340;4.962;2022-12-07T11:18:25;0.00;;;0.00;;
36221;SDS011;22266;52.340;4.962;2022-12-07T11:24:10;1.00;;;1.00;;
36221;SDS011;22266;52.340;4.962;2022-12-07T11:26:49;1.25;;;1.25;;
36221;SDS011;22266;52.340;4.962;2022-12-07T11:29:44;1.00;;;0.00;;
36221;SDS011;22266;52.340;4.962;2022-12-07T11:32:20;1.75;;;0.25;;
36221;SDS011;22266;52.340;4.962;2022-12-07T11:35:17;1.00;;;1.00;;
36221;SDS011;22266;52.340;4.962;2022-12-07T11:37:57;2.00;;;0.00;;
36221;SDS011;22266;52.340;4.962;2022-12-07T11:40:31;2.00;;;1.00;;
36221;SDS011;22266;52.340;4.962;2022-12-07T11:43:19;1.00;;;1.00;;
36221;SDS011;22266;52.340;4.962;2022-12-07T11:45:58;1.75;;;1.00;;
36221;SDS011;22266;52.340;4.962;2022-12-07T11:48:34;4.00;;;2.50;;
36221;SDS011;22266;52.340;4.962;2022-12-07T11:51:09;1.25;;;0.00;;
36221;SDS011;22266;52.340;4.962;2022-12-07T11:53:38;0.50;;;0.00;;
36221;SDS011;22266;52.340;4.962;2022-12-07T11:56:14;2.00;;;2.00;;
36221;SDS011;22266;52.340;4.962;2022-12-07T11:59:30;0.75;;;0.75;;
36221;SDS011;22266;52.340;4.962;2022-12-07T12:04:13;0.00;;;0.00;;
36221;SDS011;22266;52.340;4.962;2022-12-07T12:06:49;0.00;;;0.00;;
36221;SDS011;22266;52.340;4.962;2022-12-07T12:09:22;0.00;;;0.00;;
36221;SDS011;22266;52.340;4.962;2022-12-07T12:15:32;0.00;;;0.00;;
36221;SDS011;22266;52.340;4.962;2022-12-07T12:20:49;7.00;;;5.00;;
36221;SDS011;22266;52.340;4.962;2022-12-07T12:25:53;0.00;;;0.00;;
36221;SDS011;22266;52.340;4.962;2022-12-07T12:28:31;1.00;;;1.00;;
36221;SDS011;22266;52.340;4.962;2022-12-07T12:31:11;2.00;;;2.00;;
36221;SDS011;22266;52.340;4.962;2022-12-07T12:33:55;1.25;;;0.25;;
36221;SDS011;22266;52.340;4.962;2022-12-07T12:39:12;1.50;;;0.00;;
36221;SDS011;22266;52.340;4.962;2022-12-07T12:51:53;2.00;;;2.00;;
36221;SDS011;22266;52.340;4.962;2022-12-07T12:54:22;2.75;;;2.50;;
36221;SDS011;22266;52.340;4.962;2022-12-07T13:02:20;0.00;;;0.00;;
36221;SDS011;22266;52.340;4.962;2022-12-07T13:04:50;0.00;;;0.00;;
36221;SDS011;22266;52.340;4.962;2022-12-07T13:15:44;0.00;;;0.00;;
36221;SDS011;22266;52.340;4.962;2022-12-07T13:18:37;0.00;;;0.00;;
36221;SDS011;22266;52.340;4.962;2022-12-07T13:29:17;0.00;;;0.00;;
36221;SDS011;22266;52.340;4.962;2022-12-07T13:31:49;0.75;;;0.75;;
36221;SDS011;22266;52.340;4.962;2022-12-07T13:37:00;4.00;;;1.75;;
36221;SDS011;22266;52.340;4.962;2022-12-07T13:39:32;2.00;;;1.00;;
36221;SDS011;22266;52.340;4.962;2022-12-07T13:42:06;0.00;;;0.00;;
36221;SDS011;22266;52.340;4.962;2022-12-07T13:44:41;0.00;;;0.00;;
36221;SDS011;22266;52.340;4.962;2022-12-07T13:47:16;2.00;;;1.50;;
36221;SDS011;22266;52.340;4.962;2022-12-07T13:49:49;0.00;;;0.00;;
36221;SDS011;22266;52.340;4.962;2022-12-07T13:52:23;1.00;;;1.00;;
36221;SDS011;22266;52.340;4.962;2022-12-07T13:57:39;0.00;;;0.00;;
36221;SDS011;22266;52.340;4.962;2022-12-07T14:00:14;1.00;;;1.00;;
36221;SDS011;22266;52.340;4.962;2022-12-07T14:05:30;2.00;;;0.00;;
36221;SDS011;22266;52.340;4.962;2022-12-07T14:07:58;2.00;;;2.00;;
36221;SDS011;22266;52.340;4.962;2022-12-07T14:10:29;4.50;;;1.00;;
36221;SDS011;22266;52.340;4.962;2022-12-07T14:12:56;1.00;;;1.00;;
36221;SDS011;22266;52.340;4.962;2022-12-07T14:15:25;0.50;;;0.00;;
36221;SDS011;22266;52.340;4.962;2022-12-07T14:17:55;1.00;;;1.00;;
36221;SDS011;22266;52.340;4.962;2022-12-07T14:20:36;8.00;;;4.00;;
36221;SDS011;22266;52.340;4.962;2022-12-07T14:23:05;3.50;;;2.00;;
36221;SDS011;22266;52.340;4.962;2022-12-07T14:25:47;1.50;;;1.00;;
36221;SDS011;22266;52.340;4.962;2022-12-07T14:31:19;0.75;;;0.00;;
36221;SDS011;22266;52.340;4.962;2022-12-07T14:33:58;1.00;;;1.00;;
36221;SDS011;22266;52.340;4.962;2022-12-07T14:36:25;1.00;;;0.00;;
36221;SDS011;22266;52.340;4.962;2022-12-07T14:38:52;0.50;;;0.50;;
36221;SDS011;22266;52.340;4.962;2022-12-07T14:41:22;0.00;;;0.00;;
36221;SDS011;22266;52.340;4.962;2022-12-07T14:44:13;0.00;;;0.00;;
36221;SDS011;22266;52.340;4.962;2022-12-07T14:46:52;0.00;;;0.00;;
36221;SDS011;22266;52.340;4.962;2022-12-07T14:49:39;0.00;;;0.00;;
36221;SDS011;22266;52.340;4.962;2022-12-07T14:52:06;0.00;;;0.00;;
36221;SDS011;22266;52.340;4.962;2022-12-07T14:55:02;0.25;;;0.25;;
36221;SDS011;22266;52.340;4.962;2022-12-07T14:57:29;0.25;;;0.25;;
36221;SDS011;22266;52.340;4.962;2022-12-07T14:59:56;0.00;;;0.00;;
36221;SDS011;22266;52.340;4.962;2022-12-07T15:02:22;0.00;;;0.00;;
36221;SDS011;22266;52.340;4.962;2022-12-07T15:04:48;6.50;;;5.50;;
36221;SDS011;22266;52.340;4.962;2022-12-07T15:07:19;5.00;;;4.00;;
36221;SDS011;22266;52.340;4.962;2022-12-07T15:09:47;0.75;;;0.75;;
36221;SDS011;22266;52.340;4.962;2022-12-07T15:12:14;0.75;;;0.75;;
36221;SDS011;22266;52.340;4.962;2022-12-07T15:14:41;1.00;;;0.25;;
36221;SDS011;22266;52.340;4.962;2022-12-07T15:17:09;0.00;;;0.00;;
36221;SDS011;22266;52.340;4.962;2022-12-07T15:19:48;2.00;;;1.50;;
36221;SDS011;22266;52.340;4.962;2022-12-07T15:22:14;1.00;;;1.00;;
36221;SDS011;22266;52.340;4.962;2022-12-07T15:24:41;1.50;;;0.00;;
36221;SDS011;22266;52.340;4.962;2022-12-07T15:27:07;0.00;;;0.00;;
36221;SDS011;22266;52.340;4.962;2022-12-07T15:29:34;0.50;;;0.00;;
36221;SDS011;22266;52.340;4.962;2022-12-07T15:32:00;0.25;;;0.00;;
36221;SDS011;22266;52.340;4.962;2022-12-07T15:34:27;1.00;;;1.00;;
36221;SDS011;22266;52.340;4.962;2022-12-07T15:37:04;5.50;;;3.50;;
36221;SDS011;22266;52.340;4.962;2022-12-07T15:39:31;5.00;;;5.00;;
36221;SDS011;22266;52.340;4.962;2022-12-07T15:41:58;2.00;;;2.00;;
36221;SDS011;22266;52.340;4.962;2022-12-07T15:44:25;5.00;;;2.00;;
36221;SDS011;22266;52.340;4.962;2022-12-07T15:47:10;5.00;;;4.00;;
36221;SDS011;22266;52.340;4.962;2022-12-07T15:49:36;1.00;;;1.00;;
36221;SDS011;22266;52.340;4.962;2022-12-07T15:52:03;2.00;;;0.25;;
36221;SDS011;22266;52.340;4.962;2022-12-07T15:54:29;2.00;;;1.00;;
36221;SDS011;22266;52.340;4.962;2022-12-07T15:56:58;1.00;;;1.00;;
36221;SDS011;22266;52.340;4.962;2022-12-07T15:59:25;2.00;;;2.00;;
36221;SDS011;22266;52.340;4.962;2022-12-07T16:01:52;2.00;;;1.25;;
36221;SDS011;22266;52.340;4.962;2022-12-07T16:04:19;2.00;;;2.00;;
36221;SDS011;22266;52.340;4.962;2022-12-07T16:06:46;1.75;;;1.75;;
36221;SDS011;22266;52.340;4.962;2022-12-07T16:09:12;2.00;;;2.00;;
36221;SDS011;22266;52.340;4.962;2022-12-07T16:11:39;3.25;;;2.25;;
36221;SDS011;22266;52.340;4.962;2022-12-07T16:14:05;5.00;;;5.00;;
36221;SDS011;22266;52.340;4.962;2022-12-07T16:16:31;4.50;;;4.50;;
36221;SDS011;22266;52.340;4.962;2022-12-07T16:18:58;1.75;;;1.75;;
36221;SDS011;22266;52.340;4.962;2022-12-07T16:21:25;3.50;;;3.50;;
36221;SDS011;22266;52.340;4.962;2022-12-07T16:23:51;4.50;;;4.00;;
36221;SDS011;22266;52.340;4.962;2022-12-07T16:26:19;5.25;;;5.25;;
36221;SDS011;22266;52.340;4.962;2022-12-07T16:28:50;6.50;;;5.25;;
36221;SDS011;22266;52.340;4.962;2022-12-07T16:31:19;4.00;;;4.00;;
36221;SDS011;22266;52.340;4.962;2022-12-07T16:33:47;2.00;;;2.00;;
36221;SDS011;22266;52.340;4.962;2022-12-07T16:36:15;2.25;;;1.25;;
36221;SDS011;22266;52.340;4.962;2022-12-07T16:39:03;1.00;;;1.00;;
36221;SDS011;22266;52.340;4.962;2022-12-07T16:41:30;1.00;;;1.00;;
36221;SDS011;22266;52.340;4.962;2022-12-07T16:43:56;1.00;;;1.00;;
36221;SDS011;22266;52.340;4.962;2022-12-07T16:46:23;4.00;;;1.00;;
36221;SDS011;22266;52.340;4.962;2022-12-07T16:48:49;2.00;;;2.00;;
36221;SDS011;22266;52.340;4.962;2022-12-07T16:51:16;7.75;;;6.50;;
36221;SDS011;22266;52.340;4.962;2022-12-07T16:53:42;12.00;;;10.75;;
36221;SDS011;22266;52.340;4.962;2022-12-07T16:56:10;6.00;;;4.00;;
36221;SDS011;22266;52.340;4.962;2022-12-07T16:58:41;1.00;;;1.00;;
36221;SDS011;22266;52.340;4.962;2022-12-07T17:01:18;1.50;;;1.50;;
36221;SDS011;22266;52.340;4.962;2022-12-07T17:03:48;0.50;;;0.50;;